createdAt,value
2022-08-10T00:02:06.088Z,9.25
2022-08-10T00:07:07.837Z,9.27
2022-08-10T00:12:09.594Z,7.50
2022-08-10T00:17:11.329Z,9.38
2022-08-10T00:22:13.094Z,9.18
2022-08-10T00:27:52.603Z,14.88
2022-08-10T00:32:40.748Z,8.85
2022-08-10T00:37:42.384Z,13.23
2022-08-10T00:42:58.028Z,12.38
2022-08-10T00:47:59.788Z,8.18
2022-08-10T00:53:01.552Z,9.05
2022-08-10T00:58:03.278Z,14.65
2022-08-10T01:03:05.094Z,13.20
2022-08-10T01:08:06.791Z,11.48
2022-08-10T01:13:08.543Z,10.70
2022-08-10T01:18:10.101Z,15.45
2022-08-10T01:23:11.757Z,11.55
2022-08-10T01:28:13.516Z,7.85
2022-08-10T01:33:15.267Z,11.23
2022-08-10T01:38:17.026Z,13.68
2022-08-10T01:43:18.766Z,10.77
2022-08-10T01:48:20.547Z,11.85
2022-08-10T01:53:22.087Z,14.70
2022-08-10T01:58:23.627Z,10.80
2022-08-10T02:03:25.469Z,10.85
2022-08-10T02:08:27.223Z,10.60
2022-08-10T02:13:28.999Z,13.05
2022-08-10T02:18:30.771Z,13.27
2022-08-10T02:23:32.320Z,11.00
2022-08-10T02:28:33.927Z,15.73
2022-08-10T02:33:37.220Z,11.50
2022-08-10T02:38:59.180Z,11.55
2022-08-10T02:45:24.427Z,10.82
2022-08-10T02:49:23.576Z,15.15
2022-08-10T02:54:25.339Z,12.85
2022-08-10T02:59:27.066Z,18.25
2022-08-10T03:04:57.019Z,11.15
2022-08-10T03:09:59.461Z,9.77
2022-08-10T03:15:01.063Z,11.55
2022-08-10T03:20:34.668Z,12.30
2022-08-10T03:25:24.717Z,10.73
2022-08-10T03:30:32.864Z,14.23
2022-08-10T03:35:35.463Z,12.77
2022-08-10T03:40:46.070Z,12.00
2022-08-10T03:45:55.057Z,11.05
2022-08-10T03:50:57.931Z,18.38
2022-08-10T03:56:29.666Z,15.45
2022-08-10T04:01:21.572Z,16.80
2022-08-10T04:06:43.309Z,14.20
2022-08-10T04:11:45.062Z,13.77
2022-08-10T04:16:46.817Z,17.45
2022-08-10T04:21:48.610Z,18.73
2022-08-10T04:26:50.366Z,19.33
2022-08-10T04:31:52.096Z,20.63
2022-08-10T04:36:53.846Z,17.48
2022-08-10T04:41:55.598Z,17.83
2022-08-10T04:46:58.278Z,16.25
2022-08-10T04:52:00.971Z,17.38
2022-08-10T04:57:02.730Z,18.35
2022-08-10T05:02:27.925Z,24.08
2022-08-10T05:07:26.297Z,18.23
2022-08-10T05:12:28.111Z,17.58
2022-08-10T05:17:31.825Z,13.20
2022-08-10T05:22:33.480Z,11.02
2022-08-10T05:27:35.220Z,12.35
2022-08-10T05:32:57.639Z,13.25
2022-08-10T05:38:10.636Z,13.30
2022-08-10T05:43:17.013Z,14.75
2022-08-10T05:48:55.190Z,14.63
2022-08-10T05:54:01.891Z,13.88
2022-08-10T05:59:02.243Z,11.77
2022-08-10T06:04:03.818Z,12.45
2022-08-10T06:09:05.740Z,14.05
2022-08-10T06:14:12.961Z,12.05
2022-08-10T06:19:15.766Z,15.15
2022-08-10T06:24:17.300Z,9.25
2022-08-10T06:29:19.027Z,14.38
2022-08-10T06:34:20.631Z,14.77
2022-08-10T06:39:37.564Z,11.32
2022-08-10T06:44:39.257Z,10.07
2022-08-10T06:49:41.019Z,12.30
2022-08-10T06:54:42.778Z,8.23
2022-08-10T06:59:44.523Z,10.05
2022-08-10T07:04:46.290Z,11.48
2022-08-10T07:09:47.914Z,8.57
2022-08-10T07:14:49.502Z,11.50
2022-08-10T07:19:52.392Z,7.50
2022-08-10T07:24:54.244Z,7.90
2022-08-10T07:29:56.026Z,12.68
2022-08-10T07:34:57.647Z,22.73
2022-08-10T07:40:03.404Z,6.80
2022-08-10T07:45:06.294Z,4.75
2022-08-10T07:50:08.046Z,7.57
2022-08-10T07:55:11.763Z,5.43
2022-08-10T08:00:13.427Z,7.07
2022-08-10T08:05:57.631Z,8.30
2022-08-10T08:10:36.673Z,7.28
2022-08-10T08:16:20.345Z,7.40
2022-08-10T08:21:00.240Z,9.20
2022-08-10T08:26:04.801Z,4.57
2022-08-10T08:31:06.556Z,6.28
2022-08-10T08:36:08.326Z,5.88
2022-08-10T08:41:12.147Z,4.47
2022-08-10T08:46:13.991Z,5.45
2022-08-10T08:52:07.203Z,4.47
2022-08-10T08:56:37.271Z,6.18
2022-08-10T09:01:41.479Z,4.70
2022-08-10T09:06:43.264Z,3.00
2022-08-10T09:11:44.823Z,4.10
2022-08-10T09:16:46.472Z,5.55
2022-08-10T09:21:55.183Z,5.55
2022-08-10T09:27:10.049Z,7.95
2022-08-10T09:36:16.682Z,11.60
2022-08-10T09:37:42.500Z,3.42
2022-08-10T09:43:21.716Z,7.35
2022-08-10T09:48:17.255Z,6.93
2022-08-10T09:53:18.884Z,5.75
2022-08-10T09:58:20.430Z,3.03
2022-08-10T10:03:25.949Z,2.97
2022-08-10T10:08:27.993Z,4.50
2022-08-10T10:13:54.642Z,2.75
2022-08-10T10:18:53.803Z,4.28
2022-08-10T10:24:20.372Z,4.25
2022-08-10T10:29:44.855Z,4.63
2022-08-10T10:34:39.134Z,5.20
2022-08-10T10:39:40.938Z,26.15
2022-08-10T10:44:42.663Z,4.97
2022-08-10T10:49:44.265Z,3.47
2022-08-10T10:54:45.817Z,5.00
2022-08-10T10:59:55.390Z,2.47
2022-08-10T11:04:59.083Z,3.15
2022-08-10T11:10:08.849Z,2.53
2022-08-10T11:15:22.638Z,3.92
2022-08-10T11:20:24.363Z,2.47
2022-08-10T11:25:26.157Z,4.03
2022-08-10T11:30:27.889Z,5.47
2022-08-10T11:35:34.638Z,3.08
2022-08-10T11:40:36.732Z,2.63
2022-08-10T11:45:38.427Z,4.20
2022-08-10T11:50:53.380Z,3.22
2022-08-10T11:55:55.115Z,5.32
2022-08-10T12:00:56.885Z,4.00
2022-08-10T12:05:58.643Z,1.70
2022-08-10T12:11:00.389Z,2.35
2022-08-10T12:16:05.272Z,2.75
2022-08-10T12:21:07.347Z,3.85
2022-08-10T12:26:09.116Z,2.70
2022-08-10T12:31:10.676Z,3.17
2022-08-10T12:36:18.355Z,4.75
2022-08-10T12:41:43.393Z,4.45
2022-08-10T12:46:42.440Z,5.15
2022-08-10T12:51:49.560Z,2.63
2022-08-10T12:56:51.560Z,4.22
2022-08-10T13:02:07.548Z,3.60
2022-08-10T13:08:24.676Z,2.30
2022-08-10T13:12:38.031Z,2.63
2022-08-10T13:17:42.863Z,10.32
2022-08-10T13:22:44.533Z,7.03
2022-08-10T13:28:01.440Z,5.63
2022-08-10T13:33:04.963Z,15.00
2022-08-10T13:38:06.639Z,4.40
2022-08-10T13:43:08.478Z,2.47
2022-08-10T13:48:10.054Z,2.13
2022-08-10T13:53:14.852Z,2.33
2022-08-10T13:58:17.197Z,4.40
2022-08-10T14:03:18.980Z,1.70
2022-08-10T14:08:20.583Z,5.20
2022-08-10T14:13:22.168Z,2.72
2022-08-10T14:18:24.314Z,2.20
2022-08-10T14:23:25.960Z,2.15
2022-08-10T14:28:27.725Z,3.72
2022-08-10T14:33:29.289Z,2.58
2022-08-10T14:38:30.938Z,4.68
2022-08-10T14:43:32.489Z,3.38
2022-08-10T14:48:34.128Z,5.38
2022-08-10T14:53:35.831Z,2.85
2022-08-10T14:58:38.452Z,2.03
2022-08-10T15:04:01.579Z,2.13
2022-08-10T15:09:02.127Z,2.78
2022-08-10T15:14:29.427Z,2.70
2022-08-10T15:20:00.824Z,3.10
2022-08-10T15:24:47.486Z,2.85
2022-08-10T15:29:57.428Z,4.07
2022-08-10T15:34:59.772Z,3.97
2022-08-10T15:40:24.178Z,3.00
2022-08-10T15:45:23.022Z,3.83
2022-08-10T15:50:24.714Z,3.40
2022-08-10T15:55:44.326Z,2.97
2022-08-10T16:00:47.111Z,3.20
2022-08-10T16:06:02.326Z,2.85
2022-08-10T16:11:04.685Z,2.17
2022-08-10T16:16:06.453Z,2.88
2022-08-10T16:21:08.012Z,2.10
2022-08-10T16:26:15.300Z,3.05
2022-08-10T16:31:17.373Z,2.15
2022-08-10T16:36:18.994Z,3.50
2022-08-10T16:42:03.017Z,2.92
2022-08-10T16:46:42.396Z,1.90
2022-08-10T16:51:43.973Z,3.80
2022-08-10T16:56:48.824Z,5.10
2022-08-10T17:01:51.509Z,2.55
2022-08-10T17:06:56.738Z,3.45
2022-08-10T17:11:58.638Z,4.47
2022-08-10T17:17:00.312Z,3.53
2022-08-10T17:22:01.877Z,3.75
2022-08-10T17:28:13.862Z,3.38
2022-08-10T17:32:25.402Z,2.72
2022-08-10T17:37:27.153Z,2.80
2022-08-10T17:42:28.919Z,4.80
2022-08-10T17:47:30.465Z,3.45
2022-08-10T17:52:32.115Z,3.35
2022-08-10T17:57:33.885Z,6.60
2022-08-10T18:02:35.719Z,9.60
2022-08-10T18:07:37.512Z,7.95
2022-08-10T18:12:39.215Z,6.75
2022-08-10T18:17:40.950Z,9.07
2022-08-10T18:22:42.634Z,10.68
2022-08-10T18:28:01.139Z,4.38
2022-08-10T18:33:06.219Z,4.47
2022-08-10T18:38:07.888Z,5.15
2022-08-10T18:44:05.572Z,5.00
2022-08-10T18:48:31.230Z,4.13
2022-08-10T18:53:32.905Z,6.13
2022-08-10T18:58:34.511Z,4.57
2022-08-10T19:08:54.815Z,5.85
2022-08-10T19:13:56.644Z,10.30
2022-08-10T19:18:58.337Z,9.07
2022-08-10T19:24:00.190Z,7.93
2022-08-10T19:29:01.971Z,8.23
2022-08-10T19:34:11.674Z,7.32
2022-08-10T19:39:17.777Z,8.70
2022-08-10T19:44:20.051Z,8.77
2022-08-10T19:49:21.719Z,6.75
2022-08-10T19:54:23.565Z,7.15
2022-08-10T20:00:15.222Z,12.70
2022-08-10T20:04:47.394Z,9.18
2022-08-10T20:09:49.200Z,8.93
2022-08-10T20:14:50.947Z,10.48
2022-08-10T20:19:54.836Z,7.63
2022-08-10T20:24:56.959Z,10.45
2022-08-10T20:29:59.478Z,7.60
2022-08-10T20:35:01.430Z,9.05
2022-08-10T20:40:03.117Z,8.57
2022-08-10T20:45:04.743Z,13.20
2022-08-10T20:50:06.296Z,11.52
2022-08-10T20:55:08.002Z,9.73
2022-08-10T21:00:10.912Z,9.65
2022-08-10T21:05:12.797Z,10.93
2022-08-10T21:10:14.549Z,8.07
2022-08-10T21:15:16.276Z,9.70
2022-08-10T21:20:18.025Z,6.90
2022-08-10T21:25:30.793Z,8.63
2022-08-10T21:30:34.079Z,8.52
2022-08-10T21:35:36.748Z,7.80
2022-08-10T21:40:40.593Z,9.10
2022-08-10T21:45:57.001Z,8.38
2022-08-10T21:51:01.468Z,12.45
2022-08-10T21:56:11.551Z,10.98
2022-08-10T22:01:16.289Z,17.85
2022-08-10T22:06:18.014Z,13.68
2022-08-10T22:11:21.651Z,10.48
2022-08-10T22:16:23.299Z,13.57
2022-08-10T22:21:26.953Z,10.98
2022-08-10T22:26:28.796Z,14.15
2022-08-10T22:31:32.630Z,19.65
2022-08-10T22:36:34.709Z,23.60
2022-08-10T22:41:36.374Z,22.60
2022-08-10T22:46:38.006Z,23.55
2022-08-10T22:51:39.762Z,22.13
2022-08-10T22:56:41.505Z,19.50
2022-08-10T23:02:07.267Z,23.00
2022-08-10T23:07:04.784Z,18.48
2022-08-10T23:12:06.504Z,14.05
2022-08-10T23:17:08.281Z,12.68
2022-08-10T23:22:10.057Z,11.90
2022-08-10T23:27:12.324Z,19.13
2022-08-10T23:32:15.109Z,17.45
2022-08-10T23:37:16.853Z,16.00
2022-08-10T23:42:18.632Z,13.48
2022-08-10T23:47:20.175Z,9.57
2022-08-10T23:52:21.802Z,12.50
2022-08-10T23:57:23.576Z,12.23
